Genie Cenac — WDH8300 — position and weather

sailwx.info

Track history (hours):
 
Tides and Currents Weather Stations Pressure Air Temp Water Temp Dewpoint Dewpoint Depression Visibility Wind Speed Wind Dir Waves Ship Positions

Genie Cenac

Owner: Cenac Marine Services, Houma, LA. More information available from US FCC via Universal Licensing System and Coast Guard Vessel Documentation Center.

Last reported at 2017-Oct-20 01:36 UTC. Time now 2017-Oct-22 19:15 UTC.
Position N 29°45' W 095°04'.

Length 22 m; draft 3.7 m.

Type: Tug. MMSI: 367656670.

Date/timePositionNaut miles runAvg speedWind from/ knotsBaromVisibWave heightAir tempDewpointWater temp
2017-Oct-20 01:36N 29°45' W 095°04'1 7.4
2017-Oct-20 01:30N 29°44' W 095°03'3 6.4
2017-Oct-20 00:59N 29°42' W 095°00'3 7.3
2017-Oct-20 00:30N 29°39' W 094°58'4 7.8
2017-Oct-20 00:00N 29°36' W 094°56'4 8.1
2017-Oct-19 23:30N 29°32' W 094°54'  
2017-Oct-14 13:17N 29°49' W 093°59'0 0.1
2017-Oct-14 12:19N 29°49' W 093°59'  
2017-Oct-11 18:55N 29°32' W 094°54'2 5.8
2017-Oct-11 18:30N 29°34' W 094°55'3 5.7
2017-Oct-11 18:00N 29°36' W 094°57'3 5.6
2017-Oct-11 17:30N 29°39' W 094°58'3 5.8
2017-Oct-11 17:00N 29°41' W 094°59'6 0.2
2017-Oct-10 10:18N 29°46' W 095°05'2 5.0
2017-Oct-10 09:59N 29°45' W 095°04'3 5.3
2017-Oct-10 09:30N 29°43' W 095°01'3 5.5
2017-Oct-10 09:00N 29°41' W 094°59'3 6.6
2017-Oct-10 08:30N 29°38' W 094°58'3 6.5
2017-Oct-10 08:00N 29°35' W 094°56'3 6.4
2017-Oct-10 07:30N 29°32' W 094°54'  
Track history (hours):
 
Tides and Currents Weather Stations Pressure Air Temp Water Temp Dewpoint Dewpoint Depression Visibility Wind Speed Wind Dir Waves Ship Positions

Genie Cenac

Owner: Cenac Marine Services, Houma, LA. More information available from US FCC via Universal Licensing System and Coast Guard Vessel Documentation Center.

Last reported at 2017-Oct-20 01:36 UTC. Time now 2017-Oct-22 19:15 UTC.
Position N 29°45' W 095°04'.

Length 22 m; draft 3.7 m.

Type: Tug. MMSI: 367656670.

Date/timePositionNaut miles runAvg speedWind from/ knotsBaromVisibWave heightAir tempDewpointWater temp
2017-Oct-20 01:36N 29°45' W 095°04'1 7.4
2017-Oct-20 01:30N 29°44' W 095°03'3 6.4
2017-Oct-20 00:59N 29°42' W 095°00'3 7.3
2017-Oct-20 00:30N 29°39' W 094°58'4 7.8
2017-Oct-20 00:00N 29°36' W 094°56'4 8.1
2017-Oct-19 23:30N 29°32' W 094°54'  
2017-Oct-14 13:17N 29°49' W 093°59'0 0.1
2017-Oct-14 12:19N 29°49' W 093°59'  
2017-Oct-11 18:55N 29°32' W 094°54'2 5.8
2017-Oct-11 18:30N 29°34' W 094°55'3 5.7
2017-Oct-11 18:00N 29°36' W 094°57'3 5.6
2017-Oct-11 17:30N 29°39' W 094°58'3 5.8
2017-Oct-11 17:00N 29°41' W 094°59'6 0.2
2017-Oct-10 10:18N 29°46' W 095°05'2 5.0
2017-Oct-10 09:59N 29°45' W 095°04'3 5.3
2017-Oct-10 09:30N 29°43' W 095°01'3 5.5
2017-Oct-10 09:00N 29°41' W 094°59'3 6.6
2017-Oct-10 08:30N 29°38' W 094°58'3 6.5
2017-Oct-10 08:00N 29°35' W 094°56'3 6.4
2017-Oct-10 07:30N 29°32' W 094°54'  

Dump ship's entire track history